Alejandro Benítez

Olheiro-Chefe - Platense
17 Jul 2027
Sábado
Processo

Personalidade

Adaptabilidade (9) Ambição (17) Controvérsia (4) Lealdade (11) Pressão (6) Profissionalismo (8) Espírito Esportivo (12) Temperamento (7)

Perfil

Estilo de Treinamento Democrático
Licença Continental Pro
Determinação 9
Gestão de Pessoas 6
Motivação 7
Disciplina 8
Satisfação no Trabalho
60%
Fadiga
0%
Função Olheiro-Chefe
Salário 70.8K p/s
Contrato 14.03.2029

Desempenho

Comportamento Bom
Eficácia do Treinamento
18%
Desenvolvimento do Jogador
30%
Prevenção de Lesões
25%
Implementação Tática
55%

Eventos Recentes

Participou de uma reunião de recrutamento agora
Recomendou um alvo de transferência agora
Participou de uma reunião de recrutamento 7d atrás
Recomendou um alvo de transferência 7d atrás
Recomendou um alvo de transferência 7d atrás
Recomendou um alvo de transferência 7d atrás
Recomendou um alvo de transferência 14d atrás
Recomendou um alvo de transferência 14d atrás

Monitorando agora

194
Jogador Clube Status Habilidade Confiança Observado Última observação Último voto
Guillermo Rodríguez San Martín Ativo 98 / 111 58% 1 05.07.2027 -
Ulises Vera Quilmes Ativo 116 / 117 58% 1 14.06.2027 Aprovar
Christos Mouzakitis Hull City Ativo 145 / 135 40% 1 31.05.2027 -
Enzo Le Fée Sunderland Ativo 145 / 127 40% 2 30.05.2027 -
Rumarn Burrell Queens Park Rangers Ativo 141 / 134 40% 3 29.05.2027 -
Jack McGlynn Stoke City Ativo 119 / 145 40% 1 29.05.2027 -
Emile Smith Rowe Fulham Ativo 155 / 154 40% 7 28.05.2027 -
Agustín Hausch Caracas Ativo 117 / 118 40% 2 28.05.2027 -
Julio Enciso Ipswich Town Ativo 149 / 139 40% 4 27.05.2027 -
Jack Rudoni Coventry City Ativo 118 / 138 40% 2 27.05.2027 -
Assane Diao Como Ativo 147 / 150 40% 5 26.05.2027 -
Guille Rosas Gijón Ativo 131 / 139 40% 1 26.05.2027 -
Ichem Ferrah Pisa Ativo 100 / 113 40% 2 25.05.2027 -
Anthony da Costa Artigas Ativo 76 / 91 40% 1 24.05.2027 -
Lautaro Gutiérrez Girona Ativo 117 / 105 40% 1 24.05.2027 -
Isaiah Jones Luton Town Ativo 132 / 131 40% 5 22.05.2027 -
Isaac Price West Bromwich Albion Ativo 143 / 131 40% 1 22.05.2027 -
Amine Adli Bournemouth Ativo 130 / 138 40% 2 21.05.2027 -
Oumar Camara Vitoria Guimaraes Ativo 137 / 123 40% 1 21.05.2027 -
Shaqueel van Persie Feyenoord Ativo 123 / 117 40% 1 21.05.2027 -
Charles De Ketelaere Atalanta Ativo 159 / 159 40% 3 18.05.2027 -
Jeon Jin-Woo Sheffield Wednesday Ativo 139 / 134 40% 4 16.05.2027 -
Helinho Toluca Ativo 151 / 144 40% 2 16.05.2027 -
Ignacio Aliseda Cerro Porteno Ativo 134 / 131 40% 3 13.05.2027 -
Ezekiel Kwame Alladoh Sheffield United Ativo 120 / 126 40% 2 13.05.2027 -
Loum Tchaouna Coventry City Ativo 135 / 149 40% 4 12.05.2027 -
Ognjen Bondžulić Mladost Lucani Ativo 94 / 119 40% 2 11.05.2027 -
Alex Woiski Caracas Ativo 90 / 98 40% 2 11.05.2027 -
Sidiki Chérif Coventry City Ativo 118 / 119 40% 3 10.05.2027 -
Riley Owen Wycombe Wanderers Ativo 108 / 104 40% 1 10.05.2027 -
Inti López River Plate Ativo 103 / 95 40% 1 10.05.2027 -
Ethan Galbraith Swansea City Ativo 144 / 136 40% 2 09.05.2027 -
Sebastián Buitrago Atletico Nacional Ativo 82 / 86 40% 1 08.05.2027 -
Lamine Cissé Peterborough United Ativo 113 / 129 40% 1 05.05.2027 -
Lucas Jetten Cambuur Ativo 118 / 114 40% 1 05.05.2027 -
Maeson King Blackpool Ativo 108 / 113 40% 1 05.05.2027 -
Chemsdine Talbi Sunderland Ativo 139 / 138 40% 8 03.05.2027 -
Koki Saito Queens Park Rangers Ativo 127 / 136 40% 2 30.04.2027 -
Tomáš Rigo Stoke City Ativo 118 / 126 40% 2 30.04.2027 -
Liam Delap Nottingham Forest Ativo 155 / 158 40% 6 28.04.2027 -
Yehor Yarmoliuk Brentford Ativo 143 / 137 40% 1 28.04.2027 -
Tiago Pucciarelli Alianza Lima Ativo 94 / 104 40% 1 28.04.2027 -
Borna Knezović Casarano Ativo 109 / 104 40% 1 28.04.2027 -
Nicolás Azambuja Danubio Ativo 115 / 132 40% 2 27.04.2027 -
Ricardo Solbes Getafe Ativo 100 / 114 40% 1 27.04.2027 -
Jovon Makama Norwich City Ativo 135 / 118 40% 1 24.04.2027 -
Zahir Ibarra Elche Ativo 92 / 95 40% 1 21.04.2027 -
Jofre Torrents Ajax Ativo 129 / 133 40% 1 18.04.2027 -
Pietro Reggiori Pro Patria Ativo 107 / 91 40% 1 18.04.2027 -
Camilo Durán Bloemfontein Celtic Ativo 129 / 120 40% 1 18.04.2027 -
Víctor Guzmán Sporting CP Ativo 109 / 105 40% 3 17.04.2027 -
Wilmar Cordoba Valledupar Ativo 97 / 91 40% 2 17.04.2027 -
Kevin Schade Brentford Ativo 157 / 157 40% 1 14.04.2027 -
Eivind Helland Bologna Ativo 126 / 135 40% 1 14.04.2027 -
Sunusi Audu New Edubiase United Ativo 79 / 84 40% 2 12.04.2027 -
Sindre Walle Egeli Nottingham Forest Ativo 120 / 129 40% 1 11.04.2027 -
Dango Ouattara Brentford Ativo 143 / 136 40% 4 08.04.2027 -
Enzo Barrenechea Burnley Ativo 160 / 145 40% 2 07.04.2027 -
Ramón Terrats Getafe Ativo 136 / 149 40% 2 07.04.2027 -
Joel Orlando Real Sociedad Ativo 100 / 107 40% 2 06.04.2027 -
Mohamed El Amine Ramdaoui USM Alger Ativo 83 / 111 40% 1 04.04.2027 -
Gonzalo Fulham Ativo 133 / 140 40% 2 02.04.2027 -
Million Manhoef Stoke City Ativo 137 / 131 40% 1 02.04.2027 -
Luca Orellano Atlético Madrid Ativo 123 / 132 40% 3 28.03.2027 -
Riquelme Thompson-Jones Shrewsbury Town Ativo 114 / 122 40% 1 28.03.2027 -
Tobías Andrada Betis Ativo 125 / 131 40% 1 28.03.2027 -
Mikkel Damsgaard Brentford Ativo 137 / 145 40% 2 23.03.2027 -
Gonçalo Oliveira Benfica Ativo 102 / 126 40% 1 23.03.2027 -
Sam Curtis Swindon Town Ativo 107 / 102 40% 1 17.03.2027 -
Lorenzo De Leo Renate Ativo 96 / 112 40% 2 15.03.2027 -
Alex Scott Bournemouth Ativo 152 / 158 40% 1 15.03.2027 -
Luca Bastilla Levante Ativo 99 / 104 40% 1 15.03.2027 -
Santiago Pierotti Lecce Ativo 120 / 119 40% 2 12.03.2027 -
Daniel Gnahoua ES Setif Ativo 118 / 96 40% 1 12.03.2027 -
Finn Azaz Southampton Ativo 131 / 120 40% 2 11.03.2027 -
Max Johnston Derby County Ativo 140 / 113 40% 1 08.03.2027 -
Mathias Jørgensen Blackburn Rovers Ativo 111 / 116 40% 1 08.03.2027 -
Richard Koné Queens Park Rangers Ativo 110 / 116 40% 1 03.03.2027 -
Kevin Fulham Ativo 160 / 156 40% 2 26.02.2027 -
Roberto Iliev Slavia Sofia Ativo 91 / 102 40% 2 21.02.2027 -
Dramane Kamagaté USM Alger Ativo 109 / 120 40% 1 21.02.2027 -
Relebohile Mofokeng Orlando Pirates Ativo 104 / 136 40% 1 13.02.2027 -
Nuno Santos Mamelodi Sundowns Ativo 135 / 134 40% 1 07.02.2027 -
Simón Meza Cerrito Ativo 83 / 86 40% 1 05.02.2027 -
Dom Ballard Leyton Orient Ativo 107 / 129 40% 3 03.02.2027 -
Jeffrey Adjei Wa All Stars Ativo 82 / 75 40% 1 03.02.2027 -
Tariq Lamptey Queens Park Rangers Ativo 146 / 127 40% 1 01.02.2027 -
Habib Diarra Sunderland Ativo 146 / 154 40% 1 01.02.2027 -
José Córdoba Norwich City Ativo 127 / 122 40% 1 05.01.2027 -
Amar Memić Juventude Negociando 127 / 128 62% 1 21.12.2026 Aprovar
Thulani Billiat Utrecht Negociando 136 / 136 61% 1 01.12.2026 Aprovar
Agustín Quiroz Watford Ativo 92 / 97 40% 3 28.11.2026 -
Viktor Johansson Stoke City Ativo 133 / 130 40% 2 27.11.2026 -
Corey Addai Stockport County Ativo 99 / 98 40% 2 27.11.2026 -
Federico Varese Racing Ativo 102 / 112 40% 4 26.11.2026 -
Luka Andrade Montevideo City Torque Ativo 104 / 108 40% 5 26.11.2026 -
David Fernández O'Higgins Ativo 100 / 119 40% 2 25.11.2026 -
Lautaro Piola Vélez Ativo 99 / 112 40% 2 25.11.2026 -
Tomás Ahumada Audax Italiano Ativo 114 / 111 40% 3 22.11.2026 -
Facundo Cambeses Racing Club Ativo 124 / 118 40% 3 22.11.2026 -
Valentín Barco Chelsea Ativo 142 / 150 40% 1 22.11.2026 -
Thiago Silvero Sevilla Ativo 120 / 143 40% 1 22.11.2026 Mais informações
Lautaro Petruchi Gimnasia y Esgrima Ativo 110 / 112 40% 3 20.11.2026 -
Elías Báez Atlanta United FC Ativo 127 / 137 40% 1 20.11.2026 -
Tomás Chancalay Minnesota United FC Ativo 131 / 135 40% 1 20.11.2026 -
Esteban Glellel Quilmes Ativo 116 / 113 40% 3 18.11.2026 -
Dayne St. Clair Inter Miami CF Ativo 114 / 111 40% 2 18.11.2026 -
Alex Bass Peterborough United Ativo 120 / 99 40% 2 17.11.2026 -
Raúl Rangel Brighton Ativo 121 / 134 40% 1 17.11.2026 -
Anthony Patterson Wrexham Ativo 142 / 139 40% 1 16.11.2026 -
Felipe Zenobio Tigre Ativo 128 / 126 40% 4 15.11.2026 -
Nicolás Rossi Juventud Ativo 108 / 115 40% 2 15.11.2026 -
Luciano Jachfe Nueva Chicago Ativo 116 / 122 40% 2 14.11.2026 -
Marco Di Cesare Racing Club Ativo 122 / 138 40% 1 14.11.2026 -
Franco Ibarra Rosario Central Ativo 125 / 129 40% 1 14.11.2026 -
Nicolás Forastiero Deportivo Maldonado Ativo 96 / 94 40% 7 12.11.2026 -
Lucas Verza Olimpia Ativo 108 / 109 40% 4 10.11.2026 -
Omar Carabalí O'Higgins Ativo 108 / 106 40% 3 09.11.2026 -
Pedro González Cerro Largo Ativo 101 / 108 40% 2 08.11.2026 -
Diego Enríquez Sporting Cristal Ativo 130 / 121 40% 2 08.11.2026 -
Cristopher Varela Deportivo La Guaira Ativo 116 / 108 40% 4 07.11.2026 -
Đorđe Petrović Bournemouth Ativo 152 / 136 40% 2 06.11.2026 -
Rodrigo Morínigo Libertad Ativo 123 / 118 40% 2 06.11.2026 -
Michael Cooper Sheffield United Ativo 131 / 136 40% 1 05.11.2026 -
Iwan Morgan Grimsby Town Ativo 115 / 106 40% 1 05.11.2026 -
Luther Tau SuperSport United Ativo 115 / 121 40% 1 04.11.2026 -
Manuel Rodríguez Millonarios Ativo 83 / 89 40% 1 04.11.2026 -
Matías Contrera Northampton Town Ativo 106 / 96 40% 2 03.11.2026 -
Augusto Schott Talleres Ativo 127 / 113 40% 1 03.11.2026 -
Santiago Montiel Independiente Ativo 117 / 133 40% 1 03.11.2026 -
Adriano Freitas Deportivo Maldonado Ativo 110 / 101 40% 2 30.10.2026 -
Juan Bobba Trento Ativo 103 / 96 40% 1 30.10.2026 -
Franco Carretero Deportivo Lara Ativo 102 / 91 40% 1 29.10.2026 -
Joaquín Silva Plaza Colonia Ativo 114 / 114 40% 2 28.10.2026 -
James Trafford Leeds United Ativo 123 / 148 40% 1 28.10.2026 -
Lucas Bruera Carabobo Ativo 111 / 121 40% 3 27.10.2026 -
Juan Moreno La Luz Ativo 115 / 112 40% 5 26.10.2026 -
Matías Dufour Sportivo Trinidense Ativo 103 / 102 40% 5 23.10.2026 -
Facundo Vila Estudiantes Ativo 90 / 107 40% 1 23.10.2026 -
Sebastián Jaume Albion Ativo 106 / 100 40% 2 22.10.2026 -
Lucas Beltrán Sheffield Wednesday Ativo 82 / 105 40% 1 21.10.2026 -
Felipe Serrés Wanderers Ativo 96 / 109 40% 3 18.10.2026 -
Jonás Luna Wanderers Ativo 115 / 128 40% 3 18.10.2026 -
Alexander Lyng SonderjyskE Ativo 125 / 115 40% 1 16.10.2026 -
Esteban Crucci Wanderers Ativo 86 / 101 40% 1 15.10.2026 -
Francisco Coirolo Atenas Ativo 93 / 99 40% 1 13.10.2026 -
Ángel Maciel Tacuarembo Ativo 107 / 104 40% 3 11.10.2026 -
Carl Rushworth Coventry City Ativo 120 / 132 40% 1 11.10.2026 -
Facundo Coelli Sheffield Wednesday Ativo 107 / 91 40% 2 10.10.2026 -
Josh Keeley Luton Town Ativo 135 / 124 40% 1 09.10.2026 -
Joaquín Bigo Tristán Suárez Ativo 107 / 114 40% 1 09.10.2026 -
Lucas Girotti Trento Ativo 76 / 75 40% 1 09.10.2026 -
Julián Vignolo Toulouse FC Ativo 110 / 107 40% 1 09.10.2026 -
Pablo Suárez Rentistas Ativo 87 / 106 40% 1 08.10.2026 -
Archie Goodwin Charlotte Football Club Ativo 108 / 101 40% 1 07.10.2026 -
Hugo Gallardo Veracruz Ativo 99 / 84 40% 1 04.10.2026 -
Federico Losas Chacarita Juniors Ativo 120 / 107 40% 1 01.10.2026 -
Francisco Casanova Cerrito Ativo 97 / 95 40% 1 29.09.2026 -
Matías Medina Sportivo Luqueno Ativo 85 / 96 40% 1 27.09.2026 -
Brandon Álvarez Penarol Ativo 76 / 87 40% 1 22.09.2026 -
Luis Yanes Real Cartagena Ativo 88 / 101 40% 1 22.09.2026 -
Nahuel Galardi Maipú Ativo 109 / 114 40% 1 19.09.2026 -
Tomás Lingua Burnley Ativo 103 / 81 40% 1 19.09.2026 -
Weibmar Asprilla Independiente Medellin Ativo 104 / 118 40% 2 18.09.2026 -
Víctor Cabezas Union Magdalena Ativo 124 / 107 40% 1 13.09.2026 -
David Agudelo Depor Ativo 94 / 103 40% 2 11.09.2026 -
Alejandro Aguilar Bogota Ativo 96 / 90 40% 1 11.09.2026 -
Juan Diego Jaramillo Depor Ativo 98 / 101 40% 1 10.09.2026 -
Ángel Espínola Sportivo Luqueno Ativo 95 / 97 40% 1 09.09.2026 -
Fernando Tapia Club America Ativo 110 / 132 40% 1 09.09.2026 -
Emiliano Bermúdez Oriental Ativo 99 / 99 40% 1 08.09.2026 -
Agustín Requena Progreso Ativo 103 / 99 40% 2 07.09.2026 -
Juan Mosquera Portland Timbers Ativo 131 / 136 40% 1 07.09.2026 -
Lucas Sanabria LA Galaxy Ativo 138 / 114 40% 1 07.09.2026 -
Miguel Hurtado Valledupar Ativo 102 / 106 40% 2 05.09.2026 -
Jaime Mora Envigado Ativo 101 / 105 40% 3 02.09.2026 -
Mauro Silveira Junior Ativo 117 / 111 40% 1 01.09.2026 -
Rodrigo Hernández River Plate Ativo 79 / 99 40% 1 31.08.2026 -
Bruno Hernández Cerro Largo Ativo 91 / 99 40% 1 31.08.2026 -
Sebastián Lentinelly Olimpia Ativo 104 / 100 40% 1 28.08.2026 -
Zacarías López Iquique Ativo 106 / 91 40% 2 27.08.2026 -
Johan Portilla Deportes Quindio Ativo 91 / 104 40% 1 25.08.2026 -
Nicolás Campisi Sportivo Luqueno Ativo 123 / 116 40% 2 24.08.2026 -
Franklin Mosquera Jaguares Ativo 90 / 93 40% 1 22.08.2026 -
Humberto Acevedo Union Magdalena Ativo 101 / 95 40% 1 21.08.2026 -
Roameth Romaña Llaneros Ativo 100 / 99 40% 1 20.08.2026 -
Andres Duque Universitario Popayan Ativo 104 / 101 40% 1 19.08.2026 -
Diego Romero Universitario Ativo 112 / 113 40% 1 16.08.2026 -
Andrés Gudiño Cruz Azul Ativo 130 / 99 40% 1 16.08.2026 -
Cristian Peñate Barranquilla Ativo 79 / 93 40% 1 16.08.2026 -
Felix Mosquera Deportes Quindio Ativo 80 / 91 40% 1 16.08.2026 -
Gonzalo Falcón Cienciano Ativo 102 / 101 40% 1 13.08.2026 -
Jesus Montero Jaguares Ativo 81 / 98 40% 1 13.08.2026 -
Reynaldo Fontalvo Real Cartagena Ativo 97 / 89 40% 1 09.08.2026 -